TAP1527 LPPT-DGAA
Flight info
| Callsign | TAP1527 |
|---|---|
| Flight time | N/A |
| Altitude | 33000 |
| Route | DUZOP DCT MINTA/N0456F340 N747 SVL/N0456F350 M744 MGA DCT BERUM UL58 XAVOV UM999 MNA UA604 EREBO/N0468F360 DCT MIGNI DCT ABALA DCT IPUTA DCT TATAT DCT KILMO UB726 ACC |
| Aircraft | A21N/M-SDE2E3FGHIRWXY/LB1 |
Departure
| Time | N/A |
|---|---|
| Airport | Lisbon Humberto Delgado Airport (LPPT) |
Arrival
| Time | 2026-04-24 11:03 |
|---|---|
| Airport | Kotoka International Airport (DGAA) |
| Time | Latitude | Longitude | Altitude | Speed | Heading |
|---|---|---|---|---|---|
| 2026-04-24 10:58 | 5.65665 | -0.21220 | 3986 ft | 215 kts | 24° |
| 2026-04-24 10:58 | 5.67007 | -0.20597 | 3984 ft | 212 kts | 24° |
| 2026-04-24 10:59 | 5.68362 | -0.19967 | 3992 ft | 214 kts | 25° |
| 2026-04-24 10:59 | 5.69719 | -0.19335 | 3820 ft | 215 kts | 24° |
| 2026-04-24 10:59 | 5.71065 | -0.18698 | 3629 ft | 207 kts | 27° |
| 2026-04-24 10:59 | 5.72103 | -0.17789 | 3457 ft | 196 kts | 60° |
| 2026-04-24 11:00 | 5.72368 | -0.16513 | 3166 ft | 188 kts | 101° |
| 2026-04-24 11:00 | 5.71805 | -0.15347 | 2714 ft | 188 kts | 132° |
| 2026-04-24 11:00 | 5.70877 | -0.14451 | 2228 ft | 182 kts | 155° |
| 2026-04-24 11:00 | 5.69717 | -0.14029 | 1774 ft | 178 kts | 168° |
| 2026-04-24 11:01 | 5.68536 | -0.13806 | 1440 ft | 166 kts | 182° |
| 2026-04-24 11:01 | 5.67443 | -0.13969 | 1199 ft | 150 kts | 199° |
| 2026-04-24 11:01 | 5.66498 | -0.14276 | 985 ft | 132 kts | 203° |
| 2026-04-24 11:01 | 5.65657 | -0.14602 | 983 ft | 129 kts | 205° |
| 2026-04-24 11:02 | 5.64827 | -0.14946 | 871 ft | 129 kts | 205° |
| 2026-04-24 11:02 | 5.63997 | -0.15290 | 714 ft | 128 kts | 205° |
| 2026-04-24 11:02 | 5.63161 | -0.15633 | 549 ft | 128 kts | 205° |
| 2026-04-24 11:02 | 5.62331 | -0.15957 | 386 ft | 127 kts | 206° |
| 2026-04-24 11:03 | 5.61519 | -0.16307 | 243 ft | 126 kts | 206° |
| 2026-04-24 11:03 | 5.60782 | -0.16615 | 219 ft | 100 kts | 203° |
| 2026-04-24 11:03 | 5.60220 | -0.16844 | 208 ft | 72 kts | 202° |
| 2026-04-24 11:03 | 5.59900 | -0.17032 | 206 ft | 36 kts | 228° |
| 2026-04-24 11:04 | 5.59815 | -0.17161 | 215 ft | 11 kts | 281° |
| 2026-04-24 11:04 | 5.59877 | -0.17194 | 216 ft | 11 kts | 14° |
| 2026-04-24 11:04 | 5.59963 | -0.17161 | 213 ft | 14 kts | 21° |
| 2026-04-24 11:04 | 5.60055 | -0.17132 | 212 ft | 11 kts | 343° |
| 2026-04-24 11:05 | 5.60092 | -0.17197 | 214 ft | 10 kts | 292° |
| 2026-04-24 11:05 | 5.60103 | -0.17223 | 214 ft | 0 kts | 292° |